Time;durP1;ratioP1;P1;durP2;ratioP2;P2;SDS_P1;SDS_P2;PMS_P1;PMS_P2;Temp;Humidity;BMP_temperature;BMP_pressure;BME280_temperature;BME280_humidity;BME280_pressure;Samples;Min_cycle;Max_cycle;Signal;HPM_P1;HPM_P2
2022/08/29 00:00:54;;;;;;;12.02;1.90;;;17.40;99.90;;;;;;4955817;29;20766;-83
2022/08/29 00:03:40;;;;;;;10.40;1.80;;;17.40;99.90;;;;;;4954824;29;20134;-86
2022/08/29 00:06:27;;;;;;;6.60;1.70;;;17.40;99.90;;;;;;4957055;29;20125;-84
2022/08/29 00:09:13;;;;;;;8.85;2.10;;;17.40;99.90;;;;;;4955196;29;20408;-82
2022/08/29 00:11:59;;;;;;;9.05;2.10;;;17.40;99.90;;;;;;4956070;28;20062;-82
2022/08/29 00:14:46;;;;;;;9.90;2.08;;;17.40;99.90;;;;;;4953926;29;20052;-81
2022/08/29 00:17:32;;;;;;;5.05;1.90;;;17.40;99.90;;;;;;4940755;29;20047;-81
2022/08/29 00:20:22;;;;;;;10.23;2.10;;;17.30;99.90;;;;;;4954153;28;20058;-82
2022/08/29 00:23:08;;;;;;;4.43;1.48;;;17.40;99.90;;;;;;4955980;29;20392;-81
2022/08/29 00:25:55;;;;;;;7.75;1.50;;;17.30;99.90;;;;;;4957938;29;20583;-81
2022/08/29 00:28:41;;;;;;;8.60;1.77;;;17.30;99.90;;;;;;4959260;29;20051;-81
2022/08/29 00:31:27;;;;;;;8.27;2.05;;;17.30;99.90;;;;;;4959810;29;20254;-80
2022/08/29 00:34:14;;;;;;;7.70;1.73;;;17.30;99.90;;;;;;4957976;29;20126;-81
2022/08/29 00:37:00;;;;;;;9.30;2.15;;;17.30;99.90;;;;;;4958558;29;20043;-81
2022/08/29 00:39:46;;;;;;;12.88;2.15;;;17.40;99.90;;;;;;4965891;28;20114;-87
2022/08/29 00:42:34;;;;;;;7.28;1.80;;;17.40;99.90;;;;;;4975398;28;20135;-84
2022/08/29 00:45:21;;;;;;;6.28;1.50;;;17.40;99.90;;;;;;4976908;28;20074;-81
2022/08/29 00:48:13;;;;;;;10.80;2.40;;;17.40;99.90;;;;;;4988930;28;20050;-88
2022/08/29 00:51:05;;;;;;;12.05;2.17;;;17.40;99.90;;;;;;4974653;28;20055;-86
2022/08/29 00:53:59;;;;;;;18.42;3.60;;;17.40;99.90;;;;;;4973593;28;20054;-89
2022/08/29 00:56:46;;;;;;;10.43;2.60;;;17.40;99.90;;;;;;4975290;28;20089;-82
2022/08/29 00:59:36;;;;;;;9.55;1.85;;;17.40;99.90;;;;;;4975454;28;20054;-83
2022/08/29 01:02:23;;;;;;;10.70;2.30;;;17.40;99.90;;;;;;4973738;28;20090;-82
2022/08/29 01:05:12;;;;;;;14.25;2.03;;;17.40;99.90;;;;;;4973357;28;20047;-80
2022/08/29 01:07:59;;;;;;;9.45;1.88;;;17.40;99.90;;;;;;4974236;28;20113;-82
2022/08/29 01:13:51;;;;;;;7.32;1.88;;;17.40;99.90;;;;;;4972470;28;20058;-80
2022/08/29 01:16:38;;;;;;;7.28;1.92;;;17.40;99.90;;;;;;4974980;28;20078;-80
2022/08/29 01:19:46;;;;;;;7.57;1.80;;;17.40;99.90;;;;;;4976307;28;20198;-79
2022/08/29 01:22:57;;;;;;;7.80;2.13;;;17.40;99.90;;;;;;4961152;28;20055;-80
2022/08/29 01:25:47;;;;;;;6.80;2.03;;;17.40;99.90;;;;;;4974951;28;20047;-82
2022/08/29 01:28:40;;;;;;;5.78;1.67;;;17.40;99.90;;;;;;4973955;28;20082;-81
2022/08/29 01:31:35;;;;;;;8.75;1.90;;;17.40;99.90;;;;;;4973317;28;20065;-87
2022/08/29 01:34:22;;;;;;;;;;;17.50;99.90;;;;;;4989459;28;20051;-82
2022/08/29 01:37:11;;;;;;;9.80;2.00;;;17.50;99.90;;;;;;4975973;28;19925;-82
2022/08/29 01:39:58;;;;;;;6.13;1.63;;;17.50;99.90;;;;;;4975147;28;20073;-82
2022/08/29 01:42:44;;;;;;;5.43;1.45;;;17.50;99.90;;;;;;4973994;28;20054;-82
2022/08/29 01:45:30;;;;;;;11.77;1.65;;;17.50;99.90;;;;;;4973725;28;20042;-81
2022/08/29 01:48:17;;;;;;;6.68;1.60;;;17.50;99.90;;;;;;4974103;28;20051;-83
2022/08/29 01:51:04;;;;;;;5.80;1.63;;;17.50;99.90;;;;;;4972917;28;20053;-83
2022/08/29 01:53:51;;;;;;;7.78;1.77;;;17.50;99.90;;;;;;4972446;28;20127;-80
2022/08/29 01:56:41;;;;;;;6.22;1.70;;;17.50;99.90;;;;;;4972511;28;20047;-82
2022/08/29 01:59:29;;;;;;;7.63;1.70;;;17.50;99.90;;;;;;4985124;28;20055;-82
2022/08/29 02:02:27;;;;;;;10.55;2.17;;;17.50;99.90;;;;;;4972225;28;20059;-82
2022/08/29 02:05:16;;;;;;;8.25;1.80;;;17.50;99.90;;;;;;4971214;28;20566;-82
2022/08/29 02:08:03;;;;;;;9.23;1.70;;;17.50;99.90;;;;;;4971565;28;20510;-84
2022/08/29 02:10:49;;;;;;;7.97;1.73;;;17.50;99.90;;;;;;4971083;28;20051;-81
2022/08/29 02:13:40;;;;;;;6.28;1.38;;;17.50;99.90;;;;;;4972446;28;20051;-81
2022/08/29 02:16:27;;;;;;;9.15;2.00;;;17.50;99.90;;;;;;4972546;28;20066;-84
2022/08/29 02:19:14;;;;;;;8.30;1.88;;;17.50;99.90;;;;;;4973172;28;20545;-82
2022/08/29 02:22:01;;;;;;;9.38;1.50;;;17.50;99.90;;;;;;4974620;28;20066;-81
2022/08/29 02:24:47;;;;;;;6.75;1.35;;;17.50;99.90;;;;;;4958983;28;20061;-82
2022/08/29 02:27:33;;;;;;;9.70;2.13;;;17.50;99.90;;;;;;4975176;28;20054;-80
2022/08/29 02:30:20;;;;;;;8.80;1.50;;;17.40;99.90;;;;;;4973753;28;20050;-82
2022/08/29 02:33:08;;;;;;;8.02;1.90;;;17.50;99.90;;;;;;4985312;28;20053;-83
2022/08/29 02:35:54;;;;;;;7.63;1.90;;;17.50;99.90;;;;;;4972286;28;20487;-83
2022/08/29 02:38:41;;;;;;;7.57;1.52;;;17.40;99.90;;;;;;4972320;28;20050;-82
2022/08/29 02:41:27;;;;;;;9.82;2.13;;;17.40;99.90;;;;;;4972104;28;20396;-82
2022/08/29 02:44:13;;;;;;;10.15;1.98;;;17.40;99.90;;;;;;4976324;28;20527;-81
2022/08/29 02:46:59;;;;;;;9.90;1.77;;;17.40;99.90;;;;;;4983629;28;20059;-83
2022/08/29 02:49:46;;;;;;;7.65;1.60;;;17.40;99.90;;;;;;4978926;28;20046;-81
2022/08/29 02:52:32;;;;;;;5.97;1.90;;;17.40;99.90;;;;;;4974374;28;20058;-86
2022/08/29 02:55:20;;;;;;;8.23;2.35;;;17.40;99.90;;;;;;4970620;28;20059;-82
2022/08/29 02:58:07;;;;;;;4.80;1.88;;;17.40;99.90;;;;;;4972776;28;20388;-82
2022/08/29 03:00:53;;;;;;;8.80;1.77;;;17.40;99.90;;;;;;4970858;28;20054;-82
2022/08/29 03:03:40;;;;;;;5.28;1.38;;;17.40;99.90;;;;;;4973611;28;20446;-82
2022/08/29 03:06:26;;;;;;;6.80;2.47;;;17.40;99.90;;;;;;4971252;28;20053;-81
2022/08/29 03:09:12;;;;;;;7.72;2.15;;;17.30;99.90;;;;;;4972071;28;20078;-82
2022/08/29 03:11:58;;;;;;;10.93;2.03;;;17.40;99.90;;;;;;4971531;28;20820;-83
2022/08/29 03:14:44;;;;;;;14.15;2.55;;;17.40;99.90;;;;;;4970072;28;20055;-81
2022/08/29 03:17:33;;;;;;;8.10;1.90;;;17.40;99.90;;;;;;4970423;28;20050;-83
2022/08/29 03:20:21;;;;;;;6.20;2.00;;;17.40;99.90;;;;;;4971989;28;20054;-82
2022/08/29 03:23:08;;;;;;;7.60;2.08;;;17.40;99.90;;;;;;4970843;28;20061;-81
2022/08/29 03:25:54;;;;;;;8.77;1.70;;;17.30;99.90;;;;;;4972733;28;20062;-83
2022/08/29 03:28:41;;;;;;;10.65;2.15;;;17.40;99.90;;;;;;4974690;28;20065;-81
2022/08/29 03:31:27;;;;;;;10.48;2.10;;;17.40;99.90;;;;;;4971549;28;20101;-84
2022/08/29 03:34:14;;;;;;;5.75;1.48;;;17.40;99.90;;;;;;4970374;28;20506;-82
2022/08/29 03:37:00;;;;;;;10.25;2.33;;;17.40;99.90;;;;;;4970751;28;20548;-81
2022/08/29 03:39:46;;;;;;;12.52;1.85;;;17.30;99.90;;;;;;4970007;28;20561;-82
2022/08/29 03:42:32;;;;;;;12.45;2.22;;;17.40;99.90;;;;;;4971321;28;20055;-84
2022/08/29 03:45:19;;;;;;;8.45;2.63;;;17.40;99.90;;;;;;4971665;28;20065;-82
2022/08/29 03:48:05;;;;;;;6.70;2.03;;;17.40;99.90;;;;;;4970496;28;20454;-82
2022/08/29 03:50:51;;;;;;;7.32;2.40;;;17.40;99.90;;;;;;4972496;28;20497;-83
2022/08/29 03:53:39;;;;;;;12.68;2.13;;;17.40;99.90;;;;;;4956674;28;20088;-82
2022/08/29 03:56:26;;;;;;;8.95;2.13;;;17.40;99.90;;;;;;4974935;28;20062;-82
2022/08/29 03:59:12;;;;;;;13.73;2.85;;;17.40;99.90;;;;;;4975701;28;20491;-82
2022/08/29 04:01:59;;;;;;;9.48;2.13;;;17.40;99.90;;;;;;4973946;28;20080;-81
2022/08/29 04:07:56;;;;;;;7.70;2.15;;;17.40;99.90;;;;;;4978156;28;20101;-83
2022/08/29 04:10:42;;;;;;;10.35;1.73;;;17.40;99.90;;;;;;4978086;28;20082;-87
2022/08/29 04:13:29;;;;;;;9.02;1.63;;;17.40;99.90;;;;;;4976331;28;20043;-83
2022/08/29 04:16:18;;;;;;;10.20;2.05;;;17.40;99.90;;;;;;4975981;28;20061;-85
2022/08/29 04:19:04;;;;;;;7.72;1.95;;;17.40;99.90;;;;;;4977180;28;20054;-82
2022/08/29 04:21:50;;;;;;;9.07;1.95;;;17.40;99.90;;;;;;4975246;28;20082;-88
2022/08/29 04:24:36;;;;;;;9.43;1.63;;;17.40;99.90;;;;;;4973434;28;20513;-87
2022/08/29 04:27:23;;;;;;;12.77;2.40;;;17.40;99.90;;;;;;4974854;28;20058;-84
2022/08/29 04:30:14;;;;;;;4.97;1.90;;;17.30;99.90;;;;;;4975340;28;20143;-81
2022/08/29 04:33:00;;;;;;;12.07;3.33;;;17.40;99.90;;;;;;4974631;28;20055;-85
2022/08/29 04:35:47;;;;;;;9.90;2.63;;;17.40;99.90;;;;;;4973912;28;20078;-82
2022/08/29 04:38:34;;;;;;;9.85;1.92;;;17.30;99.90;;;;;;4974519;28;20049;-84
2022/08/29 04:41:20;;;;;;;7.65;2.05;;;17.30;99.90;;;;;;4974362;28;20061;-83
2022/08/29 04:44:08;;;;;;;10.82;2.03;;;17.30;99.90;;;;;;4974166;28;20046;-85
2022/08/29 04:46:54;;;;;;;6.65;1.63;;;17.40;99.90;;;;;;4974487;28;20430;-88
2022/08/29 04:49:41;;;;;;;8.65;2.10;;;17.30;99.90;;;;;;4973517;28;20078;-83
2022/08/29 04:52:27;;;;;;;6.75;1.65;;;17.40;99.90;;;;;;4974716;28;20054;-86
2022/08/29 04:55:16;;;;;;;8.77;2.08;;;17.40;99.90;;;;;;4974900;28;20051;-82
2022/08/29 04:58:02;;;;;;;6.93;2.10;;;17.40;99.90;;;;;;4982017;28;20054;-82
2022/08/29 05:00:48;;;;;;;5.43;1.48;;;17.40;99.90;;;;;;4980260;28;20086;-80
2022/08/29 05:03:34;;;;;;;8.18;2.10;;;17.40;99.90;;;;;;4979184;28;20137;-82
2022/08/29 05:06:21;;;;;;;7.32;1.90;;;17.40;99.90;;;;;;4976556;28;20055;-82
2022/08/29 05:09:08;;;;;;;7.90;1.83;;;17.40;99.90;;;;;;4977742;28;20219;-82
2022/08/29 05:11:54;;;;;;;8.98;2.08;;;17.40;99.90;;;;;;4977449;28;20046;-81
2022/08/29 05:14:40;;;;;;;10.90;2.08;;;17.40;99.90;;;;;;4977896;28;20054;-82
2022/08/29 05:17:27;;;;;;;6.47;1.83;;;17.40;99.90;;;;;;4977013;28;20058;-81
2022/08/29 05:20:13;;;;;;;8.25;2.38;;;17.40;99.90;;;;;;4974864;28;20047;-83
2022/08/29 05:22:59;;;;;;;6.30;1.73;;;17.40;99.90;;;;;;4974761;28;20078;-81
2022/08/29 05:25:55;;;;;;;12.40;1.92;;;17.40;99.90;;;;;;4973381;28;20454;-81
2022/08/29 05:28:41;;;;;;;11.07;2.30;;;17.40;99.90;;;;;;4973768;28;20110;-80
2022/08/29 05:31:27;;;;;;;9.00;1.85;;;17.40;99.90;;;;;;4973112;28;20054;-84
2022/08/29 05:34:14;;;;;;;11.13;2.70;;;17.40;99.90;;;;;;4973094;28;20054;-81
2022/08/29 05:37:01;;;;;;;9.20;3.03;;;17.30;99.90;;;;;;4972635;28;20054;-79
2022/08/29 05:39:49;;;;;;;9.57;2.90;;;17.30;99.90;;;;;;4974785;28;20086;-83
2022/08/29 05:42:35;;;;;;;10.68;2.60;;;17.30;99.90;;;;;;4975490;28;20102;-80
2022/08/29 05:45:21;;;;;;;10.93;2.63;;;17.30;99.90;;;;;;4974950;28;20046;-81
2022/08/29 05:48:08;;;;;;;11.43;2.28;;;17.30;99.90;;;;;;4975658;28;20053;-81
2022/08/29 05:50:55;;;;;;;6.93;2.63;;;17.20;99.90;;;;;;4987254;28;20137;-86
2022/08/29 05:53:41;;;;;;;9.52;2.53;;;17.30;99.90;;;;;;4972735;28;20047;-82
2022/08/29 05:56:29;;;;;;;12.30;3.80;;;17.30;99.90;;;;;;4971711;28;20055;-85
2022/08/29 05:59:16;;;;;;;11.13;3.38;;;17.30;99.90;;;;;;4972118;28;20533;-82
2022/08/29 06:02:04;;;;;;;11.73;3.13;;;17.30;99.90;;;;;;4972738;28;20070;-80
2022/08/29 06:04:51;;;;;;;9.25;2.90;;;17.30;99.90;;;;;;4985308;28;20525;-81
2022/08/29 06:07:37;;;;;;;17.52;3.63;;;17.30;99.90;;;;;;4972534;28;20050;-81
2022/08/29 06:10:23;;;;;;;9.18;2.50;;;17.30;99.90;;;;;;4970463;28;20570;-80
2022/08/29 06:13:10;;;;;;;12.45;2.90;;;17.40;99.90;;;;;;4971938;28;20059;-82
2022/08/29 06:15:56;;;;;;;15.75;3.20;;;17.50;99.90;;;;;;4972063;28;20394;-81
2022/08/29 06:18:43;;;;;;;13.23;2.83;;;17.50;99.90;;;;;;4972272;28;20050;-81
2022/08/29 06:21:29;;;;;;;11.57;2.85;;;17.60;99.90;;;;;;4984886;28;20144;-81
2022/08/29 06:24:16;;;;;;;11.65;2.60;;;17.60;99.90;;;;;;4970982;28;20435;-82
2022/08/29 06:27:03;;;;;;;14.00;2.70;;;17.70;99.90;;;;;;4971820;28;20050;-81
2022/08/29 06:29:49;;;;;;;14.23;2.85;;;17.70;99.90;;;;;;4971767;28;20057;-82
2022/08/29 06:32:35;;;;;;;8.77;3.25;;;17.80;99.90;;;;;;4971454;28;20133;-84
2022/08/29 06:35:21;;;;;;;12.57;2.83;;;17.90;99.90;;;;;;4984940;28;20177;-83
2022/08/29 06:38:07;;;;;;;10.25;3.22;;;18.00;99.90;;;;;;4972366;28;20059;-81
2022/08/29 06:40:53;;;;;;;13.50;3.22;;;18.00;99.90;;;;;;4971801;28;20055;-81
2022/08/29 06:43:40;;;;;;;13.15;4.07;;;18.10;99.90;;;;;;4971730;28;20491;-81
2022/08/29 06:46:33;;;;;;;10.23;3.05;;;18.20;99.90;;;;;;4973211;28;20089;-80
2022/08/29 06:49:20;;;;;;;15.50;3.63;;;18.30;99.90;;;;;;4973591;28;20557;-85
2022/08/29 06:52:06;;;;;;;11.88;2.97;;;18.30;99.90;;;;;;4973902;28;20082;-82
2022/08/29 06:54:53;;;;;;;14.13;3.58;;;18.30;99.90;;;;;;4985279;28;20065;-83
2022/08/29 06:57:43;;;;;;;11.57;2.75;;;18.40;99.90;;;;;;4970787;28;20051;-84
2022/08/29 07:00:29;;;;;;;14.05;2.50;;;18.40;99.90;;;;;;4985712;28;20465;-81
2022/08/29 07:03:15;;;;;;;11.52;2.92;;;18.50;99.90;;;;;;4985582;28;20050;-81
2022/08/29 07:06:02;;;;;;;9.73;2.38;;;18.50;99.90;;;;;;4971245;28;20054;-86
2022/08/29 07:08:49;;;;;;;13.93;2.92;;;18.60;99.90;;;;;;4970130;28;20090;-81
2022/08/29 07:11:38;;;;;;;19.30;3.42;;;18.60;99.90;;;;;;4971567;28;20050;-81
2022/08/29 07:14:24;;;;;;;13.52;2.80;;;18.70;99.90;;;;;;4970629;28;20082;-82
2022/08/29 07:17:11;;;;;;;18.67;3.63;;;18.80;99.90;;;;;;4971354;28;20055;-82
2022/08/29 07:19:57;;;;;;;18.55;4.00;;;18.90;99.90;;;;;;4971542;28;20406;-82
2022/08/29 07:22:46;;;;;;;11.63;2.65;;;19.00;99.90;;;;;;4970569;28;20047;-80
2022/08/29 07:25:33;;;;;;;18.65;3.47;;;19.00;99.90;;;;;;4974335;28;20050;-86
2022/08/29 07:28:09;;;;;;;11.50;3.42;;;19.20;99.90;;;;;;5376065;23;20057;-88
2022/08/29 07:30:55;;;;;;;11.40;3.15;;;19.30;99.90;;;;;;5013303;28;20139;-83
2022/08/29 07:33:41;;;;;;;9.60;2.97;;;19.50;99.90;;;;;;5012616;28;20054;-83
2022/08/29 07:36:27;;;;;;;12.15;2.72;;;19.60;99.90;;;;;;5012988;28;20115;-85
2022/08/29 07:39:17;;;;;;;15.10;3.58;;;19.70;99.90;;;;;;4999305;28;20145;-84
2022/08/29 07:42:04;;;;;;;9.65;2.83;;;20.00;99.90;;;;;;5014907;28;20052;-83
2022/08/29 07:44:50;;;;;;;12.15;2.47;;;20.00;99.90;;;;;;5014888;28;20140;-82
2022/08/29 07:47:37;;;;;;;12.23;2.97;;;20.00;99.90;;;;;;5012986;28;20049;-82
2022/08/29 07:50:26;;;;;;;13.48;3.30;;;19.90;99.90;;;;;;5015711;28;20060;-83
2022/08/29 07:53:12;;;;;;;10.15;2.83;;;19.60;99.90;;;;;;5012839;28;20068;-85
2022/08/29 07:56:03;;;;;;;11.50;3.20;;;19.60;99.90;;;;;;5013487;28;20093;-87
2022/08/29 07:58:49;;;;;;;12.23;3.85;;;19.40;99.90;;;;;;5013543;28;20513;-88
2022/08/29 08:01:36;;;;;;;15.80;3.58;;;19.30;99.90;;;;;;5012800;28;20054;-88
2022/08/29 08:04:22;;;;;;;11.60;3.03;;;19.30;99.90;;;;;;5012574;28;20139;-90
2022/08/29 08:07:09;;;;;;;12.23;3.40;;;19.20;99.90;;;;;;5012173;28;20409;-82
2022/08/29 08:09:55;;;;;;;17.40;3.92;;;19.20;99.90;;;;;;5013731;28;20046;-81
2022/08/29 08:12:42;;;;;;;14.88;4.35;;;19.10;99.90;;;;;;5015736;28;20054;-81
2022/08/29 08:15:28;;;;;;;15.55;4.57;;;19.00;99.90;;;;;;5014127;28;20046;-86
2022/08/29 08:18:16;;;;;;;22.20;4.20;;;18.90;99.90;;;;;;5013963;28;20054;-84
2022/08/29 08:21:03;;;;;;;20.10;4.20;;;18.90;99.90;;;;;;5011613;28;20054;-77
2022/08/29 08:23:51;;;;;;;11.65;3.97;;;18.90;99.90;;;;;;5013165;28;20136;-78
2022/08/29 08:26:37;;;;;;;12.02;3.42;;;18.80;99.90;;;;;;5013201;28;20089;-80
2022/08/29 08:29:23;;;;;;;13.60;3.67;;;18.80;99.90;;;;;;5012926;28;20048;-87
2022/08/29 08:32:09;;;;;;;13.27;3.70;;;18.70;99.90;;;;;;4998144;28;20053;-80
2022/08/29 08:34:55;;;;;;;12.27;3.80;;;18.60;99.90;;;;;;5013309;28;20045;-78
2022/08/29 08:37:43;;;;;;;13.27;3.15;;;18.60;99.90;;;;;;5014246;28;20088;-81
2022/08/29 08:40:30;;;;;;;16.15;4.68;;;18.60;99.90;;;;;;5017420;28;20054;-86
2022/08/29 08:43:24;;;;;;;15.40;4.60;;;18.60;99.90;;;;;;5017536;28;20050;-82
2022/08/29 08:46:10;;;;;;;15.45;4.25;;;18.70;99.90;;;;;;5020747;28;20056;-81
2022/08/29 08:49:00;;;;;;;12.52;4.20;;;18.70;99.90;;;;;;5016494;28;20099;-84
2022/08/29 08:51:52;;;;;;;14.52;4.47;;;18.70;99.90;;;;;;5014055;28;20115;-83
2022/08/29 08:54:54;;;;;;;12.80;3.45;;;18.80;99.90;;;;;;5012774;28;20436;-83
2022/08/29 08:57:47;;;;;;;14.25;3.47;;;18.90;99.90;;;;;;5012831;28;20049;-89
2022/08/29 09:00:42;;;;;;;12.70;3.90;;;18.80;99.90;;;;;;5012714;28;20046;-89
2022/08/29 09:04:01;;;;;;;16.08;4.22;;;18.90;99.90;;;;;;5014624;28;20053;-78
2022/08/29 09:06:59;;;;;;;18.83;4.43;;;18.90;99.90;;;;;;5007206;28;20081;-80
2022/08/29 09:10:01;;;;;;;17.90;3.97;;;19.00;99.90;;;;;;5016282;28;20064;-79
2022/08/29 09:13:29;;;;;;;15.80;4.30;;;19.10;99.90;;;;;;4996318;28;20493;-80
2022/08/29 09:16:32;;;;;;;19.90;4.60;;;19.10;99.90;;;;;;4985881;28;20108;-79
2022/08/29 09:19:19;;;;;;;18.15;4.30;;;19.30;99.90;;;;;;4996059;28;20504;-79
2022/08/29 09:22:15;;;;;;;11.27;3.58;;;19.30;99.90;;;;;;5010030;28;20045;-78
2022/08/29 09:25:06;;;;;;;16.65;3.67;;;19.40;99.90;;;;;;5012730;28;20042;-81
2022/08/29 09:27:52;;;;;;;18.08;3.65;;;19.50;99.90;;;;;;5027299;28;20081;-79
2022/08/29 09:30:42;;;;;;;15.38;3.88;;;19.60;99.90;;;;;;5014255;28;20057;-81
2022/08/29 09:33:40;;;;;;;19.02;4.18;;;19.70;99.90;;;;;;5014270;28;20136;-87
2022/08/29 09:36:44;;;;;;;20.00;4.47;;;19.80;99.90;;;;;;5016781;28;20044;-91
2022/08/29 09:39:31;;;;;;;13.43;3.47;;;19.90;99.90;;;;;;5013616;28;20043;-80
2022/08/29 09:42:21;;;;;;;12.95;3.60;;;20.00;99.90;;;;;;5012500;28;20057;-79
2022/08/29 09:45:23;;;;;;;13.65;2.97;;;20.30;99.90;;;;;;4995883;28;20054;-79
2022/08/29 09:48:16;;;;;;;11.43;3.95;;;20.50;99.90;;;;;;4998458;28;20379;-80
2022/08/29 09:51:27;;;;;;;18.90;3.97;;;20.70;99.90;;;;;;5009369;28;20050;-80
2022/08/29 09:54:22;;;;;;;13.52;3.30;;;20.90;99.90;;;;;;5009375;28;20050;-80
2022/08/29 09:57:17;;;;;;;;;;;21.20;99.90;;;;;;5013257;28;20046;-84
2022/08/29 10:00:16;;;;;;;9.80;2.78;;;21.40;99.90;;;;;;5011542;28;19921;-89
2022/08/29 10:03:07;;;;;;;15.73;3.72;;;21.80;99.90;;;;;;5012910;28;20061;-79
2022/08/29 10:06:10;;;;;;;14.73;3.25;;;22.00;99.90;;;;;;5012104;28;20057;-80
2022/08/29 10:09:22;;;;;;;15.63;3.95;;;22.10;99.90;;;;;;5009571;28;20429;-85
2022/08/29 10:12:18;;;;;;;16.00;3.33;;;22.10;99.90;;;;;;5010871;28;20093;-82
2022/08/29 10:15:10;;;;;;;15.77;3.90;;;22.10;99.90;;;;;;4998139;28;20141;-83
2022/08/29 10:18:19;;;;;;;11.80;2.63;;;22.10;99.90;;;;;;5009398;28;20077;-86
2022/08/29 10:21:24;;;;;;;11.50;3.50;;;22.10;99.90;;;;;;4995134;28;20053;-84
2022/08/29 10:24:22;;;;;;;16.02;3.67;;;22.40;99.90;;;;;;5009565;28;20050;-81
2022/08/29 10:27:34;;;;;;;12.73;3.08;;;22.50;99.90;;;;;;5010678;28;20875;-85
2022/08/29 10:30:41;;;;;;;15.35;3.58;;;22.70;99.90;;;;;;5011009;28;20077;-81
2022/08/29 10:33:39;;;;;;;12.02;3.38;;;22.80;99.90;;;;;;5010996;28;20108;-82
2022/08/29 10:36:32;;;;;;;12.27;4.38;;;22.80;99.90;;;;;;5011884;28;20056;-81
2022/08/29 10:39:46;;;;;;;13.93;2.95;;;22.70;99.90;;;;;;5010562;28;20497;-83
2022/08/29 10:42:35;;;;;;;13.77;3.10;;;22.70;99.90;;;;;;5010970;28;20486;-88
2022/08/29 10:45:29;;;;;;;9.23;3.08;;;22.80;99.90;;;;;;5026202;28;20073;-81
2022/08/29 10:48:29;;;;;;;13.63;3.47;;;22.70;99.90;;;;;;4995754;28;20060;-81
2022/08/29 10:51:52;;;;;;;14.63;3.53;;;22.80;99.90;;;;;;5010575;28;20141;-83
2022/08/29 10:54:38;;;;;;;10.55;3.05;;;22.80;99.90;;;;;;5009207;28;20365;-82
2022/08/29 10:57:56;;;;;;;10.70;3.53;;;22.80;99.90;;;;;;5010564;28;20213;-81
2022/08/29 11:00:53;;;;;;;11.32;3.55;;;23.10;99.90;;;;;;5010240;28;20081;-81
2022/08/29 11:04:00;;;;;;;13.27;3.38;;;23.20;99.90;;;;;;5010072;28;20042;-84
2022/08/29 11:07:05;;;;;;;12.68;2.80;;;23.30;99.90;;;;;;5012630;28;20132;-80
2022/08/29 11:09:56;;;;;;;13.85;3.30;;;23.30;99.90;;;;;;5013182;28;20057;-82
2022/08/29 11:12:47;;;;;;;12.55;3.28;;;23.10;99.90;;;;;;5013739;28;20049;-84
2022/08/29 11:15:55;;;;;;;11.18;3.20;;;23.00;99.90;;;;;;5016827;28;20074;-82
2022/08/29 11:18:51;;;;;;;11.18;2.95;;;22.90;99.90;;;;;;5014757;28;20053;-84
2022/08/29 11:21:51;;;;;;;12.63;3.40;;;22.90;99.90;;;;;;5015133;28;20052;-81
2022/08/29 11:24:40;;;;;;;18.65;3.15;;;23.00;99.90;;;;;;5014716;28;20076;-83
2022/08/29 11:27:35;;;;;;;15.85;3.60;;;23.30;99.90;;;;;;5016599;28;20066;-85
2022/08/29 11:30:41;;;;;;;12.25;2.85;;;23.60;99.90;;;;;;5016892;28;20056;-87
2022/08/29 11:33:39;;;;;;;;;;;23.90;99.90;;;;;;5015787;28;20137;-81
2022/08/29 11:36:57;;;;;;;9.93;3.00;;;24.20;99.90;;;;;;5013445;28;19932;-81
2022/08/29 11:39:46;;;;;;;13.80;3.17;;;24.40;99.80;;;;;;5013868;28;20469;-86
2022/08/29 11:42:38;;;;;;;9.95;2.35;;;24.50;99.80;;;;;;5011680;28;20493;-83
2022/08/29 11:45:27;;;;;;;12.07;2.63;;;24.50;99.70;;;;;;5013720;28;20045;-85
2022/08/29 11:48:35;;;;;;;9.23;2.65;;;24.40;99.50;;;;;;5011631;28;20050;-82
2022/08/29 11:51:39;;;;;;;11.38;2.40;;;24.50;99.40;;;;;;5014053;28;20132;-82
2022/08/29 11:54:25;;;;;;;14.68;3.40;;;24.50;99.20;;;;;;5012029;28;20085;-82
2022/08/29 11:57:11;;;;;;;15.38;2.58;;;24.50;99.40;;;;;;5013641;28;20054;-81
2022/08/29 11:59:59;;;;;;;12.40;2.22;;;24.40;99.30;;;;;;5013927;28;20057;-82
2022/08/29 12:02:46;;;;;;;12.98;2.92;;;24.30;99.40;;;;;;5015048;28;20054;-88
2022/08/29 12:05:56;;;;;;;8.65;2.53;;;24.40;99.50;;;;;;5012518;28;20056;-83
2022/08/29 12:08:50;;;;;;;12.82;3.22;;;24.50;98.80;;;;;;4999815;28;20046;-81
2022/08/29 12:12:04;;;;;;;14.27;2.70;;;24.50;98.80;;;;;;5013267;28;20046;-82
2022/08/29 12:14:51;;;;;;;11.68;2.40;;;24.40;98.60;;;;;;5013018;28;20565;-80
2022/08/29 12:17:42;;;;;;;9.77;2.50;;;24.70;98.70;;;;;;5013012;28;20053;-82
2022/08/29 12:20:34;;;;;;;10.77;2.17;;;24.80;98.40;;;;;;5013587;28;20053;-80
2022/08/29 12:23:28;;;;;;;7.57;2.50;;;24.70;98.30;;;;;;5013167;28;20057;-82
2022/08/29 12:26:36;;;;;;;8.60;1.98;;;24.60;98.20;;;;;;5014143;28;20054;-84
2022/08/29 12:29:33;;;;;;;11.05;2.60;;;24.80;97.70;;;;;;5011142;28;20128;-82
2022/08/29 12:32:45;;;;;;;9.35;2.22;;;24.80;98.30;;;;;;5013514;28;20501;-81
2022/08/29 12:36:10;;;;;;;8.52;2.50;;;24.80;97.80;;;;;;5013062;28;20046;-81
2022/08/29 12:39:08;;;;;;;14.70;3.83;;;25.00;97.80;;;;;;5014709;28;20037;-82
2022/08/29 12:42:23;;;;;;;9.65;1.90;;;25.20;97.70;;;;;;5013726;28;20050;-82
2022/08/29 12:45:17;;;;;;;;;;;25.90;97.90;;;;;;5013120;28;20042;-81
2022/08/29 12:48:11;;;;;;;13.57;2.85;;;27.40;97.10;;;;;;5012298;28;19921;-80
2022/08/29 12:50:58;;;;;;;10.40;2.33;;;27.90;94.70;;;;;;5014402;28;20084;-80
2022/08/29 12:53:48;;;;;;;10.57;2.28;;;27.40;94.70;;;;;;5014427;28;20050;-89
2022/08/29 12:56:41;;;;;;;9.32;2.58;;;27.40;94.20;;;;;;5014399;28;20048;-85
2022/08/29 12:59:28;;;;;;;13.65;3.35;;;27.60;93.80;;;;;;5011493;28;20054;-83
2022/08/29 13:02:32;;;;;;;10.77;2.70;;;27.60;93.80;;;;;;5011857;28;20046;-80
2022/08/29 13:05:21;;;;;;;9.85;2.38;;;28.10;93.00;;;;;;5016187;28;20089;-81
2022/08/29 13:08:24;;;;;;;9.52;1.98;;;29.30;93.00;;;;;;5012362;28;20049;-82
2022/08/29 13:11:11;;;;;;;13.10;2.25;;;29.60;91.60;;;;;;5012183;28;20072;-81
2022/08/29 13:14:10;;;;;;;7.70;2.28;;;30.60;91.50;;;;;;5013438;28;20057;-82
2022/08/29 13:16:56;;;;;;;10.60;1.90;;;31.60;90.00;;;;;;4996013;28;20061;-84
2022/08/29 13:20:21;;;;;;;11.10;1.92;;;31.30;88.00;;;;;;5011642;28;20056;-81
2022/08/29 13:23:07;;;;;;;8.73;2.08;;;31.60;85.20;;;;;;5009733;28;20081;-82
2022/08/29 13:25:58;;;;;;;8.02;2.30;;;31.10;85.90;;;;;;5014100;28;20051;-81
2022/08/29 13:28:51;;;;;;;11.18;2.10;;;31.50;85.00;;;;;;5025725;28;20057;-79
2022/08/29 13:31:38;;;;;;;6.85;1.73;;;32.10;83.10;;;;;;5011284;28;20053;-84
2022/08/29 13:34:24;;;;;;;7.10;1.98;;;32.10;81.80;;;;;;5011795;28;20081;-82
2022/08/29 13:37:31;;;;;;;8.50;2.05;;;32.20;82.20;;;;;;5011258;28;20417;-81
2022/08/29 13:40:31;;;;;;;8.25;2.20;;;32.60;81.10;;;;;;5009952;28;20062;-82
2022/08/29 13:43:38;;;;;;;9.30;1.70;;;32.70;78.50;;;;;;5011686;28;20053;-81
2022/08/29 13:46:29;;;;;;;8.52;2.13;;;31.80;76.90;;;;;;5009849;28;20077;-81
2022/08/29 13:49:20;;;;;;;8.95;2.38;;;31.00;80.30;;;;;;5011150;28;20056;-84
2022/08/29 13:52:09;;;;;;;7.03;1.95;;;30.40;81.30;;;;;;5010727;28;20045;-84
2022/08/29 13:54:55;;;;;;;8.55;1.90;;;30.40;82.60;;;;;;5010817;28;20116;-82
2022/08/29 13:57:45;;;;;;;5.25;1.95;;;30.20;83.10;;;;;;5011523;28;20046;-82
2022/08/29 14:00:32;;;;;;;8.02;2.10;;;30.50;82.30;;;;;;5011469;28;20058;-84
2022/08/29 14:03:20;;;;;;;10.02;1.95;;;30.70;82.20;;;;;;5009557;28;20057;-83
2022/08/29 14:06:09;;;;;;;7.60;1.90;;;31.50;81.50;;;;;;5011216;28;20637;-80
2022/08/29 14:08:58;;;;;;;5.35;1.63;;;32.30;80.30;;;;;;5030578;28;20052;-83
2022/08/29 14:11:44;;;;;;;6.95;1.77;;;32.20;78.30;;;;;;5009632;28;20494;-82
2022/08/29 14:14:30;;;;;;;8.80;1.65;;;31.80;78.10;;;;;;5008932;28;20047;-83
2022/08/29 14:17:17;;;;;;;10.07;1.63;;;31.60;78.30;;;;;;5009348;28;20104;-87
2022/08/29 14:20:08;;;;;;;7.78;2.53;;;32.50;78.30;;;;;;5009298;28;20056;-82
2022/08/29 14:22:54;;;;;;;6.47;2.05;;;32.50;75.50;;;;;;5000349;28;20053;-82
2022/08/29 14:25:41;;;;;;;11.70;1.98;;;32.00;76.10;;;;;;5009524;28;20057;-84
2022/08/29 14:28:27;;;;;;;10.07;1.92;;;32.60;76.90;;;;;;5013013;28;20416;-84
2022/08/29 14:31:13;;;;;;;8.57;1.95;;;33.20;75.10;;;;;;5011553;28;20041;-85
2022/08/29 14:33:59;;;;;;;8.05;1.83;;;32.70;73.90;;;;;;5009902;28;20505;-82
2022/08/29 14:36:45;;;;;;;6.85;1.42;;;31.90;74.50;;;;;;5011478;28;20524;-87
2022/08/29 14:39:32;;;;;;;8.32;2.22;;;31.10;76.10;;;;;;5010768;28;20559;-91
2022/08/29 14:42:18;;;;;;;8.30;1.60;;;30.20;77.90;;;;;;5012301;28;20405;-90
2022/08/29 14:45:06;;;;;;;7.32;1.67;;;29.40;78.80;;;;;;5012886;28;20050;-82
2022/08/29 14:47:52;;;;;;;7.60;2.00;;;28.70;80.60;;;;;;5011334;28;20560;-82
2022/08/29 14:50:38;;;;;;;8.50;2.03;;;28.20;82.20;;;;;;5023795;28;20052;-82